createdAt,value
2022-08-26T00:01:44.787Z,22.63
2022-08-26T00:04:12.267Z,22.71
2022-08-26T00:06:42.545Z,22.67
2022-08-26T00:09:13.662Z,22.65
2022-08-26T00:11:43.332Z,22.54
2022-08-26T00:14:09.873Z,22.66
2022-08-26T00:16:36.820Z,22.65
2022-08-26T00:19:07.861Z,22.64
2022-08-26T00:21:35.289Z,22.64
2022-08-26T00:24:04.452Z,22.65
2022-08-26T00:26:33.528Z,22.66
2022-08-26T00:29:00.114Z,22.63
2022-08-26T00:31:27.035Z,22.58
2022-08-26T00:33:53.796Z,22.56
2022-08-26T00:36:20.675Z,22.49
2022-08-26T00:38:48.101Z,22.45
2022-08-26T00:41:14.838Z,22.37
2022-08-26T00:43:46.137Z,22.34
2022-08-26T00:46:19.314Z,22.38
2022-08-26T00:48:51.485Z,22.38
2022-08-26T00:51:21.365Z,22.33
2022-08-26T00:54:01.513Z,22.27
2022-08-26T00:56:42.271Z,22.18
2022-08-26T00:59:12.040Z,22.14
2022-08-26T01:01:41.310Z,22.11
2022-08-26T01:04:09.698Z,22.06
2022-08-26T01:06:36.384Z,22.00
2022-08-26T01:09:04.572Z,21.95
2022-08-26T01:11:34.984Z,21.94
2022-08-26T01:14:04.593Z,21.87
2022-08-26T01:16:33.332Z,21.71
2022-08-26T01:19:07.858Z,21.79
2022-08-26T01:21:43.839Z,21.75
2022-08-26T01:24:11.357Z,21.71
2022-08-26T01:26:42.459Z,21.53
2022-08-26T01:29:12.856Z,21.63
2022-08-26T01:31:43.355Z,21.67
2022-08-26T01:34:38.325Z,21.65
2022-08-26T01:37:13.681Z,21.59
2022-08-26T01:39:43.405Z,21.54
2022-08-26T01:42:14.522Z,21.49
2022-08-26T01:44:49.068Z,21.44
2022-08-26T01:47:17.799Z,21.41
2022-08-26T01:49:55.852Z,21.41
2022-08-26T01:52:28.185Z,21.37
2022-08-26T01:54:57.446Z,21.31
2022-08-26T01:57:25.125Z,21.31
2022-08-26T01:59:54.883Z,21.19
2022-08-26T02:02:22.361Z,21.29
2022-08-26T02:04:56.526Z,21.32
2022-08-26T02:07:24.336Z,21.37
2022-08-26T02:09:53.757Z,21.39
2022-08-26T02:12:21.053Z,21.36
2022-08-26T02:14:53.675Z,21.35
2022-08-26T02:17:24.616Z,21.33
2022-08-26T02:19:51.854Z,21.32
2022-08-26T02:22:22.885Z,21.31
2022-08-26T02:24:54.822Z,21.29
2022-08-26T02:27:32.245Z,21.30
2022-08-26T02:30:12.202Z,21.29
2022-08-26T02:32:40.307Z,21.27
2022-08-26T02:35:10.142Z,21.26
2022-08-26T02:37:37.321Z,21.22
2022-08-26T02:40:08.269Z,21.17
2022-08-26T02:42:35.681Z,21.20
2022-08-26T02:45:02.187Z,21.21
2022-08-26T02:47:29.300Z,21.19
2022-08-26T02:49:59.512Z,21.22
2022-08-26T02:52:26.895Z,21.22
2022-08-26T02:54:54.924Z,21.20
2022-08-26T02:57:22.201Z,21.19
2022-08-26T02:59:49.340Z,21.19
2022-08-26T03:02:17.280Z,21.15
2022-08-26T03:04:57.364Z,21.21
2022-08-26T03:07:28.626Z,21.23
2022-08-26T03:09:57.088Z,21.13
2022-08-26T03:12:24.012Z,21.07
2022-08-26T03:14:52.421Z,21.01
2022-08-26T03:17:19.028Z,20.98
2022-08-26T03:19:45.519Z,20.96
2022-08-26T03:22:12.131Z,20.95
2022-08-26T03:24:41.277Z,20.95
2022-08-26T03:27:12.718Z,20.92
2022-08-26T03:29:59.692Z,20.90
2022-08-26T03:32:27.118Z,20.89
2022-08-26T03:34:53.943Z,20.78
2022-08-26T03:37:21.664Z,20.90
2022-08-26T03:39:48.803Z,20.89
2022-08-26T03:42:15.898Z,20.93
2022-08-26T03:44:42.697Z,20.92
2022-08-26T03:47:10.645Z,20.90
2022-08-26T03:49:37.819Z,20.85
2022-08-26T03:52:04.883Z,20.87
2022-08-26T03:54:32.735Z,20.95
2022-08-26T03:56:59.353Z,21.01
2022-08-26T03:59:26.621Z,20.95
2022-08-26T04:01:55.762Z,21.07
2022-08-26T04:04:22.837Z,21.07
2022-08-26T04:06:58.168Z,20.99
2022-08-26T04:09:26.197Z,21.04
2022-08-26T04:11:55.706Z,21.02
2022-08-26T04:14:25.751Z,21.03
2022-08-26T04:16:55.356Z,21.04
2022-08-26T04:19:23.909Z,20.98
2022-08-26T04:22:01.600Z,20.91
2022-08-26T04:24:31.033Z,20.93
2022-08-26T04:26:57.845Z,20.96
2022-08-26T04:29:26.548Z,20.91
2022-08-26T04:31:57.618Z,21.00
2022-08-26T04:34:28.322Z,21.00
2022-08-26T04:36:56.064Z,21.02
2022-08-26T04:39:22.842Z,21.04
2022-08-26T04:41:50.150Z,21.07
2022-08-26T04:44:17.781Z,21.08
2022-08-26T04:46:44.503Z,21.09
2022-08-26T04:53:24.047Z,21.18
2022-08-26T04:55:52.453Z,21.22
2022-08-26T04:58:24.437Z,21.27
2022-08-26T05:00:54.737Z,21.35
2022-08-26T05:03:23.578Z,21.42
2022-08-26T05:05:56.483Z,21.53
2022-08-26T05:08:24.253Z,21.69
2022-08-26T05:10:57.214Z,21.61
2022-08-26T05:13:26.490Z,21.70
2022-08-26T05:15:53.260Z,21.69
2022-08-26T05:18:23.061Z,21.74
2022-08-26T05:20:54.901Z,21.76
2022-08-26T05:23:23.339Z,21.78
2022-08-26T05:25:57.083Z,21.94
2022-08-26T05:28:28.300Z,22.06
2022-08-26T05:30:55.842Z,22.11
2022-08-26T05:33:23.092Z,22.17
2022-08-26T05:35:50.036Z,22.13
2022-08-26T05:38:20.610Z,22.21
2022-08-26T05:40:52.511Z,22.23
2022-08-26T05:43:21.380Z,22.21
2022-08-26T05:45:50.171Z,22.17
2022-08-26T05:48:19.117Z,22.16
2022-08-26T05:50:52.949Z,22.10
2022-08-26T05:53:21.739Z,22.11
2022-08-26T05:55:50.452Z,22.12
2022-08-26T05:58:20.906Z,22.10
2022-08-26T06:01:12.136Z,22.17
2022-08-26T06:03:44.781Z,22.30
2022-08-26T06:06:27.921Z,22.42
2022-08-26T06:08:59.401Z,22.59
2022-08-26T06:11:28.039Z,22.74
2022-08-26T06:13:58.987Z,22.84
2022-08-26T06:16:28.250Z,22.75
2022-08-26T06:18:55.242Z,22.80
2022-08-26T06:21:28.718Z,23.00
2022-08-26T06:24:16.918Z,23.17
2022-08-26T06:26:50.350Z,23.42
2022-08-26T06:29:24.140Z,23.84
2022-08-26T06:31:52.629Z,24.14
2022-08-26T06:34:19.586Z,24.51
2022-08-26T06:36:47.800Z,25.02
2022-08-26T06:39:16.919Z,25.42
2022-08-26T06:41:47.149Z,25.80
2022-08-26T06:44:17.853Z,26.00
2022-08-26T06:46:45.745Z,26.29
2022-08-26T06:49:13.197Z,26.59
2022-08-26T06:51:40.989Z,26.94
2022-08-26T06:54:08.698Z,27.41
2022-08-26T06:56:42.948Z,27.68
2022-08-26T06:59:11.238Z,27.89
2022-08-26T07:01:44.595Z,28.09
2022-08-26T07:04:15.523Z,28.17
2022-08-26T07:06:48.873Z,28.29
2022-08-26T07:09:16.854Z,28.56
2022-08-26T07:11:44.537Z,28.58
2022-08-26T07:14:12.141Z,28.85
2022-08-26T07:16:39.643Z,28.88
2022-08-26T07:19:10.930Z,29.04
2022-08-26T07:21:40.374Z,29.08
2022-08-26T07:24:08.599Z,29.04
2022-08-26T07:26:38.031Z,28.86
2022-08-26T07:29:04.637Z,28.82
2022-08-26T07:31:39.606Z,28.79
2022-08-26T07:34:10.514Z,28.67
2022-08-26T07:36:37.114Z,28.54
2022-08-26T07:39:04.225Z,28.52
2022-08-26T07:41:30.977Z,28.29
2022-08-26T07:43:58.655Z,28.05
2022-08-26T07:46:27.553Z,27.86
2022-08-26T07:48:57.446Z,27.70
2022-08-26T07:51:27.827Z,27.78
2022-08-26T07:53:54.749Z,27.94
2022-08-26T07:56:23.232Z,27.97
2022-08-26T07:58:53.660Z,28.01
2022-08-26T08:01:24.631Z,27.94
2022-08-26T08:03:54.206Z,27.79
2022-08-26T08:06:23.091Z,27.67
2022-08-26T08:08:54.347Z,27.54
2022-08-26T08:11:21.558Z,27.49
2022-08-26T08:13:56.454Z,27.43
2022-08-26T08:16:27.123Z,27.35
2022-08-26T08:18:55.787Z,27.50
2022-08-26T08:21:24.846Z,27.68
2022-08-26T08:23:53.199Z,27.61
2022-08-26T08:26:20.088Z,27.64
2022-08-26T08:28:47.820Z,27.94
2022-08-26T08:31:44.958Z,28.54
2022-08-26T08:34:08.990Z,29.20
2022-08-26T08:36:36.198Z,29.98
2022-08-26T08:39:03.461Z,30.53
2022-08-26T08:41:43.535Z,30.89
2022-08-26T08:44:19.953Z,31.13
2022-08-26T08:46:54.295Z,31.20
2022-08-26T08:49:22.399Z,31.30
2022-08-26T08:52:03.177Z,31.51
2022-08-26T08:54:32.047Z,31.82
2022-08-26T08:57:12.547Z,31.89
2022-08-26T08:59:53.233Z,31.66
2022-08-26T09:02:33.851Z,31.21
2022-08-26T09:05:28.013Z,30.79
2022-08-26T09:08:03.642Z,31.10
2022-08-26T09:10:54.045Z,31.40
2022-08-26T09:13:25.139Z,31.77
2022-08-26T09:16:10.421Z,32.07
2022-08-26T09:18:48.089Z,32.09
2022-08-26T09:21:17.812Z,31.68
2022-08-26T09:23:49.264Z,31.40
2022-08-26T09:26:25.966Z,31.06
2022-08-26T09:28:55.903Z,30.76
2022-08-26T09:31:27.472Z,30.52
2022-08-26T09:34:19.805Z,30.24
2022-08-26T09:36:50.191Z,29.97
2022-08-26T09:39:37.511Z,29.70
2022-08-26T09:42:14.351Z,29.56
2022-08-26T09:45:04.948Z,29.54
2022-08-26T09:47:39.356Z,29.66
2022-08-26T09:50:30.058Z,30.05
2022-08-26T09:53:16.858Z,30.50
2022-08-26T09:55:49.074Z,30.99
2022-08-26T09:58:32.178Z,31.42
2022-08-26T10:01:02.689Z,31.76
2022-08-26T10:03:38.360Z,32.19
2022-08-26T10:06:21.418Z,32.34
2022-08-26T10:08:59.014Z,32.52
2022-08-26T10:11:53.463Z,32.86
2022-08-26T10:14:32.420Z,33.25
2022-08-26T10:17:06.879Z,33.12
2022-08-26T10:19:57.845Z,33.47
2022-08-26T10:22:29.016Z,33.68
2022-08-26T10:25:00.234Z,33.50
2022-08-26T10:27:51.067Z,33.24
2022-08-26T10:30:23.373Z,33.02
2022-08-26T10:33:02.087Z,33.07
2022-08-26T10:35:30.792Z,33.19
2022-08-26T10:38:14.397Z,33.12
2022-08-26T10:40:43.996Z,33.04
2022-08-26T10:43:25.724Z,32.99
2022-08-26T10:45:57.126Z,32.80
2022-08-26T10:48:53.552Z,32.32
2022-08-26T10:51:27.359Z,31.97
2022-08-26T10:54:02.264Z,31.62
2022-08-26T10:56:40.453Z,31.05
2022-08-26T10:59:25.655Z,30.77
2022-08-26T11:02:24.318Z,30.45
2022-08-26T11:05:03.416Z,30.20
2022-08-26T11:07:33.798Z,30.05
2022-08-26T11:10:05.239Z,29.81
2022-08-26T11:12:34.537Z,29.65
2022-08-26T11:15:24.568Z,29.57
2022-08-26T11:17:53.795Z,29.48
2022-08-26T11:20:31.083Z,29.40
2022-08-26T11:23:20.202Z,29.33
2022-08-26T11:25:57.060Z,29.27
2022-08-26T11:28:45.515Z,29.20
2022-08-26T11:31:26.058Z,29.19
2022-08-26T11:34:01.915Z,29.20
2022-08-26T11:36:40.573Z,29.22
2022-08-26T11:39:15.617Z,29.20
2022-08-26T11:41:48.331Z,29.25
2022-08-26T11:44:25.286Z,29.34
2022-08-26T11:46:59.526Z,29.45
2022-08-26T11:49:28.837Z,29.65
2022-08-26T11:52:18.599Z,29.88
2022-08-26T11:55:07.423Z,30.29
2022-08-26T11:57:40.638Z,30.82
2022-08-26T12:00:13.598Z,31.34
2022-08-26T12:02:41.138Z,31.68
2022-08-26T12:05:08.246Z,32.18
2022-08-26T12:07:35.632Z,32.66
2022-08-26T12:10:05.748Z,32.77
2022-08-26T12:12:36.071Z,32.92
2022-08-26T12:15:21.928Z,33.06
2022-08-26T12:17:53.416Z,33.42
2022-08-26T12:20:48.528Z,33.69
2022-08-26T12:23:36.477Z,33.98
2022-08-26T12:26:20.664Z,34.02
2022-08-26T12:29:00.141Z,33.94
2022-08-26T12:31:34.483Z,33.88
2022-08-26T12:34:05.926Z,33.52
2022-08-26T12:36:40.289Z,33.03
2022-08-26T12:39:15.504Z,32.77
2022-08-26T12:41:44.540Z,32.92
2022-08-26T12:44:36.794Z,33.06
2022-08-26T12:47:39.065Z,33.32
2022-08-26T12:50:12.951Z,33.50
2022-08-26T12:52:59.798Z,33.32
2022-08-26T12:55:32.385Z,33.18
2022-08-26T12:58:16.054Z,33.12
2022-08-26T13:00:45.214Z,33.07
2022-08-26T13:03:50.352Z,32.97
2022-08-26T13:06:22.675Z,32.88
2022-08-26T13:08:53.783Z,32.88
2022-08-26T13:11:33.116Z,33.07
2022-08-26T13:14:24.110Z,32.96
2022-08-26T13:16:52.104Z,32.88
2022-08-26T13:19:24.449Z,33.08
2022-08-26T13:21:53.940Z,32.81
2022-08-26T13:24:24.988Z,32.85
2022-08-26T13:26:51.730Z,32.93
2022-08-26T13:29:19.320Z,33.14
2022-08-26T13:31:46.817Z,33.38
2022-08-26T13:34:19.583Z,33.52
2022-08-26T13:36:49.299Z,33.48
2022-08-26T13:39:16.209Z,33.51
2022-08-26T13:41:43.338Z,33.19
2022-08-26T13:44:10.531Z,32.97
2022-08-26T13:46:37.243Z,32.63
2022-08-26T13:49:04.042Z,32.29
2022-08-26T13:51:31.292Z,32.19
2022-08-26T13:53:58.510Z,32.04
2022-08-26T13:56:27.494Z,31.92
2022-08-26T13:58:54.023Z,32.00
2022-08-26T14:01:20.953Z,32.15
2022-08-26T14:03:47.795Z,32.26
2022-08-26T14:06:15.546Z,32.23
2022-08-26T14:08:42.419Z,31.96
2022-08-26T14:11:08.987Z,31.77
2022-08-26T14:13:36.204Z,31.33
2022-08-26T14:16:07.556Z,30.55
2022-08-26T14:18:41.644Z,30.40
2022-08-26T14:21:12.575Z,29.98
2022-08-26T14:23:39.097Z,29.77
2022-08-26T14:26:08.238Z,29.67
2022-08-26T14:28:35.595Z,29.34
2022-08-26T14:31:03.318Z,29.26
2022-08-26T14:33:33.315Z,29.44
2022-08-26T14:36:19.054Z,29.62
2022-08-26T14:38:46.799Z,29.82
2022-08-26T14:41:17.056Z,29.86
2022-08-26T14:43:50.374Z,29.63
2022-08-26T14:46:18.277Z,29.59
2022-08-26T14:48:44.976Z,29.61
2022-08-26T14:51:11.685Z,29.52
2022-08-26T14:53:57.058Z,29.42
2022-08-26T14:56:24.374Z,29.48
2022-08-26T14:58:50.950Z,29.51
2022-08-26T15:01:17.511Z,29.60
2022-08-26T15:03:44.663Z,29.64
2022-08-26T15:06:12.961Z,29.79
2022-08-26T15:08:40.032Z,29.78
2022-08-26T15:11:06.529Z,29.88
2022-08-26T15:13:33.113Z,29.94
2022-08-26T15:15:59.683Z,30.08
2022-08-26T15:18:26.346Z,30.12
2022-08-26T15:20:52.944Z,30.16
2022-08-26T15:23:22.444Z,30.22
2022-08-26T15:25:49.019Z,30.30
2022-08-26T15:28:15.670Z,30.30
2022-08-26T15:30:43.123Z,30.26
2022-08-26T15:33:15.177Z,30.08
2022-08-26T15:35:43.161Z,30.06
2022-08-26T15:38:10.705Z,29.97
2022-08-26T15:40:37.622Z,29.92
2022-08-26T15:43:18.409Z,29.87
2022-08-26T15:45:51.724Z,29.76
2022-08-26T15:48:18.922Z,29.70
2022-08-26T15:50:53.555Z,29.68
2022-08-26T15:53:21.954Z,29.67
2022-08-26T15:55:49.408Z,29.62
2022-08-26T15:58:16.949Z,29.64
2022-08-26T16:00:44.793Z,29.63
2022-08-26T16:03:11.388Z,29.62
2022-08-26T16:05:39.398Z,29.63
2022-08-26T16:08:07.470Z,29.59
2022-08-26T16:10:35.538Z,29.56
2022-08-26T16:13:02.182Z,29.52
2022-08-26T16:15:28.763Z,29.43
2022-08-26T16:17:59.279Z,29.36
2022-08-26T16:20:26.137Z,29.27
2022-08-26T16:22:52.788Z,29.18
2022-08-26T16:25:20.163Z,28.94
2022-08-26T16:27:46.879Z,28.92
2022-08-26T16:30:14.262Z,28.77
2022-08-26T16:32:40.784Z,28.69
2022-08-26T16:35:07.713Z,28.62
2022-08-26T16:37:36.516Z,28.60
2022-08-26T16:40:07.198Z,28.54
2022-08-26T16:42:33.778Z,28.49
2022-08-26T16:45:00.369Z,28.43
2022-08-26T16:47:27.086Z,28.37
2022-08-26T16:49:53.759Z,28.29
2022-08-26T16:52:20.422Z,28.22
2022-08-26T16:54:47.814Z,28.14
2022-08-26T16:57:14.393Z,28.08
2022-08-26T16:59:41.591Z,28.03
2022-08-26T17:02:08.753Z,27.93
2022-08-26T17:04:35.338Z,27.80
2022-08-26T17:07:01.999Z,27.57
2022-08-26T17:09:28.569Z,27.33
2022-08-26T17:11:55.149Z,26.80
2022-08-26T17:14:21.877Z,26.21
2022-08-26T17:16:51.266Z,25.87
2022-08-26T17:19:21.251Z,25.64
2022-08-26T17:21:48.004Z,25.46
2022-08-26T17:24:14.752Z,25.23
2022-08-26T17:26:44.232Z,24.92
2022-08-26T17:29:15.111Z,24.75
2022-08-26T17:31:44.719Z,24.52
2022-08-26T17:34:11.299Z,24.32
2022-08-26T17:36:37.911Z,24.15
2022-08-26T17:39:04.491Z,23.93
2022-08-26T17:41:31.183Z,23.63
2022-08-26T17:43:57.679Z,23.63
2022-08-26T17:46:25.042Z,23.55
2022-08-26T17:48:51.801Z,23.35
2022-08-26T17:51:21.873Z,23.25
2022-08-26T17:53:49.170Z,22.96
2022-08-26T17:56:19.565Z,22.65
2022-08-26T17:58:51.005Z,22.35
2022-08-26T18:01:18.474Z,22.04
2022-08-26T18:03:45.170Z,21.94
2022-08-26T18:06:13.759Z,21.84
2022-08-26T18:12:47.368Z,21.64
2022-08-26T18:15:16.040Z,21.67
2022-08-26T18:17:43.067Z,21.68
2022-08-26T18:20:12.942Z,21.68
2022-08-26T18:22:39.869Z,21.69
2022-08-26T18:25:07.620Z,21.72
2022-08-26T18:27:36.048Z,21.71
2022-08-26T18:30:11.355Z,21.71
2022-08-26T18:32:40.226Z,21.72
2022-08-26T18:35:07.934Z,21.64
2022-08-26T18:37:34.610Z,21.67
2022-08-26T18:40:01.294Z,21.64
2022-08-26T18:42:28.392Z,21.64
2022-08-26T18:44:55.008Z,21.63
2022-08-26T18:47:22.619Z,21.58
2022-08-26T18:49:51.839Z,21.64
2022-08-26T18:52:18.392Z,21.66
2022-08-26T18:54:44.979Z,21.72
2022-08-26T18:57:12.112Z,21.69
2022-08-26T18:59:38.866Z,21.82
2022-08-26T19:02:05.587Z,21.86
2022-08-26T19:04:32.301Z,21.87
2022-08-26T19:06:58.897Z,21.93
2022-08-26T19:09:26.425Z,21.96
2022-08-26T19:11:54.299Z,21.98
2022-08-26T19:14:20.879Z,21.96
2022-08-26T19:16:50.012Z,21.93
2022-08-26T19:19:17.044Z,21.89
2022-08-26T19:21:44.131Z,21.88
2022-08-26T19:24:15.455Z,21.86
2022-08-26T19:26:46.894Z,21.84
2022-08-26T19:29:13.855Z,21.83
2022-08-26T19:31:42.134Z,21.77
2022-08-26T19:34:10.883Z,21.85
2022-08-26T19:36:37.851Z,21.81
2022-08-26T19:39:06.477Z,21.80
2022-08-26T19:41:37.958Z,21.83
2022-08-26T19:44:08.607Z,21.82
2022-08-26T19:46:36.362Z,21.78
2022-08-26T19:49:03.984Z,21.72
2022-08-26T19:51:34.073Z,21.79
2022-08-26T19:54:01.649Z,21.81
2022-08-26T19:56:28.628Z,21.79
2022-08-26T19:58:55.941Z,21.80
2022-08-26T20:01:23.334Z,21.80
2022-08-26T20:03:50.428Z,21.83
2022-08-26T20:06:17.587Z,21.79
2022-08-26T20:08:44.738Z,21.76
2022-08-26T20:11:16.129Z,21.75
2022-08-26T20:13:43.555Z,21.73
2022-08-26T20:16:11.914Z,21.67
2022-08-26T20:18:59.385Z,21.73
2022-08-26T20:21:26.364Z,21.35
2022-08-26T20:23:58.331Z,21.61
2022-08-26T20:26:27.688Z,21.66
2022-08-26T20:28:55.327Z,21.58
2022-08-26T20:31:22.116Z,21.53
2022-08-26T20:33:50.514Z,21.51
2022-08-26T20:36:20.189Z,21.41
2022-08-26T20:38:48.189Z,21.42
2022-08-26T20:41:14.850Z,21.37
2022-08-26T20:43:42.798Z,21.33
2022-08-26T20:46:18.796Z,21.29
2022-08-26T20:48:46.892Z,21.28
2022-08-26T20:51:13.624Z,21.21
2022-08-26T20:53:40.331Z,21.17
2022-08-26T20:56:10.883Z,20.91
2022-08-26T20:58:38.700Z,21.12
2022-08-26T21:01:07.961Z,21.15
2022-08-26T21:03:36.502Z,21.12
2022-08-26T21:06:03.792Z,21.07
2022-08-26T21:08:33.110Z,21.06
2022-08-26T21:11:00.740Z,21.06
2022-08-26T21:13:35.813Z,21.03
2022-08-26T21:16:11.933Z,21.03
2022-08-26T21:18:38.962Z,21.01
2022-08-26T21:21:09.712Z,21.08
2022-08-26T21:23:37.048Z,21.10
2022-08-26T21:26:10.118Z,21.12
2022-08-26T21:28:38.245Z,21.14
2022-08-26T21:31:11.603Z,21.17
2022-08-26T21:33:38.378Z,21.14
2022-08-26T21:36:06.345Z,21.04
2022-08-26T21:38:33.924Z,21.21
2022-08-26T21:41:05.525Z,21.21
2022-08-26T21:43:35.503Z,21.19
2022-08-26T21:46:11.397Z,21.12
2022-08-26T21:48:39.523Z,21.05
2022-08-26T21:51:06.474Z,21.03
2022-08-26T21:53:32.996Z,20.72
2022-08-26T21:55:59.515Z,21.03
2022-08-26T21:58:26.055Z,21.08
2022-08-26T22:00:52.571Z,21.13
2022-08-26T22:03:19.127Z,21.10
2022-08-26T22:05:51.139Z,20.91
2022-08-26T22:08:20.100Z,21.03
2022-08-26T22:10:51.823Z,20.97
2022-08-26T22:13:25.001Z,20.97
2022-08-26T22:15:52.169Z,20.95
2022-08-26T22:18:21.109Z,20.95
2022-08-26T22:20:47.936Z,20.95
2022-08-26T22:23:14.445Z,20.95
2022-08-26T22:25:41.499Z,20.93
2022-08-26T22:28:08.005Z,20.92
2022-08-26T22:30:35.347Z,20.93
2022-08-26T22:33:03.679Z,20.95
2022-08-26T22:35:30.963Z,20.96
2022-08-26T22:37:58.797Z,20.96
2022-08-26T22:40:25.353Z,20.87
2022-08-26T22:42:55.614Z,20.94
2022-08-26T22:45:27.394Z,20.92
2022-08-26T22:47:53.992Z,20.96
2022-08-26T22:50:20.628Z,20.71
2022-08-26T22:52:47.167Z,20.96
2022-08-26T22:55:14.232Z,20.96
2022-08-26T22:57:41.993Z,20.97
2022-08-26T23:00:12.283Z,20.99
2022-08-26T23:02:38.910Z,21.00
2022-08-26T23:05:06.769Z,20.96
2022-08-26T23:07:34.242Z,21.03
2022-08-26T23:10:01.871Z,21.00
2022-08-26T23:12:28.347Z,21.03
2022-08-26T23:14:55.182Z,20.95
2022-08-26T23:17:21.720Z,20.97
2022-08-26T23:19:48.308Z,21.01
2022-08-26T23:22:16.847Z,20.95
2022-08-26T23:24:43.687Z,20.99
2022-08-26T23:27:10.531Z,20.95
2022-08-26T23:29:37.166Z,21.00
2022-08-26T23:32:04.493Z,21.01
2022-08-26T23:34:49.458Z,21.01
2022-08-26T23:37:16.333Z,21.02
2022-08-26T23:39:42.832Z,21.01
2022-08-26T23:42:10.787Z,20.98
2022-08-26T23:44:37.285Z,20.96
2022-08-26T23:47:05.301Z,20.94
2022-08-26T23:49:32.478Z,20.92
2022-08-26T23:52:17.944Z,20.90
2022-08-26T23:54:45.439Z,20.87
2022-08-26T23:57:11.947Z,20.88
2022-08-26T23:59:38.953Z,20.86
